Etusivu
METAR-TAF:

METAR-TAF

Lentoasemat :

Wittman Regional Airport

Oshkosh, Wisconsin, Yhdysvallat

Leveyspiiri: 43-58-00N, Pituuspiiri: 088-33-29W, korkeus merenpinnasta: 246 m

Tämänhetkinen sää

Tämä raportti tehtiin 1 tunti ja 7 minuuttia sitten, kello 11.53 UTC
Tuuli 14 kn etelästä puuskistuen 21 kn:hen
Lämpötila -9°C
Kosteus 62%
Ilmanpaine 1019 hPa
Näkyvyys: 16.1 km
Hajanaisia pilviä 12000 ft:n korkeudessa

METAR: KOSH 131153Z 19014G21KT 10SM SCT120 M09/M15 A3009 RMK AO2 PK WND 18026/1057 SLP215 T10941150 11094 21111 56028

Aika: 07:00 (13:00 UTC)


TAF: puuttuu

Säähavainnot ja -ennusteet yli 4000 lentoasemalta (METAR- ja TAF-raportit).

Käytössä olevat sääasemat on merkitty karttaan keltaisilla ja punaisilla pisteillä.

Aseta hiiri pisteen päälle nähdäksesi sääaseman nimen.

Klikkaa sitten nähdäksesi säähavainnot ja -ennusteet.

Kartan vaihtaminen: klikkaa mustalla rastilla varustettuja vihreitä pisteitä, niin voit zoomata sisään; viivalla varustettua vihreää pistettä, niin voit zoomata ulos tai vihreitä nuolia, niin pääset viereisille kartoille.


METAR-TAF: